sensor_id;sensor_type;location;lat;lon;timestamp;temperature;humidity
41547;DHT22;27271;45.412;10.852;2023-08-07T04:34:13;14.20;48.90
41547;DHT22;27271;45.412;10.852;2023-08-07T04:37:35;14.10;1.00
41547;DHT22;27271;45.412;10.852;2023-08-07T04:40:57;14.20;1.00
41547;DHT22;27271;45.412;10.852;2023-08-07T04:44:19;14.20;1.00
41547;DHT22;27271;45.412;10.852;2023-08-07T04:47:42;14.30;1.00
41547;DHT22;27271;45.412;10.852;2023-08-07T04:51:04;14.30;1.00
41547;DHT22;27271;45.412;10.852;2023-08-07T04:54:26;14.40;1.00
41547;DHT22;27271;45.412;10.852;2023-08-07T04:57:53;14.60;1.00
41547;DHT22;27271;45.412;10.852;2023-08-07T05:01:18;14.70;1.00
41547;DHT22;27271;45.412;10.852;2023-08-07T05:04:41;14.80;1.00
41547;DHT22;27271;45.412;10.852;2023-08-07T05:08:03;15.10;1.00
41547;DHT22;27271;45.412;10.852;2023-08-07T05:11:25;15.20;1.00
41547;DHT22;27271;45.412;10.852;2023-08-07T05:14:50;15.30;1.00
41547;DHT22;27271;45.412;10.852;2023-08-07T05:18:27;15.20;1.00
41547;DHT22;27271;45.412;10.852;2023-08-07T05:21:49;15.30;1.00
41547;DHT22;27271;45.412;10.852;2023-08-07T05:25:16;15.50;1.00
41547;DHT22;27271;45.412;10.852;2023-08-07T05:28:48;16.30;1.00
41547;DHT22;27271;45.412;10.852;2023-08-07T05:32:12;17.30;1.00
41547;DHT22;27271;45.412;10.852;2023-08-07T05:35:34;19.20;99.90
41547;DHT22;27271;45.412;10.852;2023-08-07T05:38:57;21.50;99.90
41547;DHT22;27271;45.412;10.852;2023-08-07T05:42:19;23.50;99.90
41547;DHT22;27271;45.412;10.852;2023-08-07T05:45:41;25.30;99.90
41547;DHT22;27271;45.412;10.852;2023-08-07T05:49:04;26.70;99.90
41547;DHT22;27271;45.412;10.852;2023-08-07T05:52:27;28.00;99.90
41547;DHT22;27271;45.412;10.852;2023-08-07T05:55:49;28.90;99.90
41547;DHT22;27271;45.412;10.852;2023-08-07T05:59:12;29.50;99.90
41547;DHT22;27271;45.412;10.852;2023-08-07T06:02:34;29.80;99.90
41547;DHT22;27271;45.412;10.852;2023-08-07T06:05:56;30.40;99.90
41547;DHT22;27271;45.412;10.852;2023-08-07T06:09:18;30.70;99.90
41547;DHT22;27271;45.412;10.852;2023-08-07T06:12:40;31.20;99.90
41547;DHT22;27271;45.412;10.852;2023-08-07T06:16:03;31.70;99.90
41547;DHT22;27271;45.412;10.852;2023-08-07T06:19:25;32.10;99.90
41547;DHT22;27271;45.412;10.852;2023-08-07T06:22:54;32.40;99.90
41547;DHT22;27271;45.412;10.852;2023-08-07T06:26:18;32.60;99.90
41547;DHT22;27271;45.412;10.852;2023-08-07T06:29:40;33.00;99.90
41547;DHT22;27271;45.412;10.852;2023-08-07T06:33:02;33.30;99.90
41547;DHT22;27271;45.412;10.852;2023-08-07T06:36:24;33.60;99.90
41547;DHT22;27271;45.412;10.852;2023-08-07T06:39:46;34.50;99.90
41547;DHT22;27271;45.412;10.852;2023-08-07T06:43:10;34.50;99.90
41547;DHT22;27271;45.412;10.852;2023-08-07T06:46:32;34.10;99.90
41547;DHT22;27271;45.412;10.852;2023-08-07T06:49:55;34.20;99.90
41547;DHT22;27271;45.412;10.852;2023-08-07T06:53:17;34.20;99.90
41547;DHT22;27271;45.412;10.852;2023-08-07T06:56:39;33.50;99.90
41547;DHT22;27271;45.412;10.852;2023-08-07T07:00:04;31.80;99.90
41547;DHT22;27271;45.412;10.852;2023-08-07T07:03:26;31.20;99.90
41547;DHT22;27271;45.412;10.852;2023-08-07T07:06:48;32.40;99.90
41547;DHT22;27271;45.412;10.852;2023-08-07T07:10:11;33.60;99.90
41547;DHT22;27271;45.412;10.852;2023-08-07T07:13:33;33.40;99.90
41547;DHT22;27271;45.412;10.852;2023-08-07T07:16:55;31.80;99.90
41547;DHT22;27271;45.412;10.852;2023-08-07T07:20:17;29.60;99.90
41547;DHT22;27271;45.412;10.852;2023-08-07T07:23:39;28.10;99.90
41547;DHT22;27271;45.412;10.852;2023-08-07T07:27:01;27.80;99.90
41547;DHT22;27271;45.412;10.852;2023-08-07T07:30:23;27.80;99.90
41547;DHT22;27271;45.412;10.852;2023-08-07T07:33:45;28.60;99.90
41547;DHT22;27271;45.412;10.852;2023-08-07T07:37:08;29.80;99.90
41547;DHT22;27271;45.412;10.852;2023-08-07T07:40:30;31.70;99.90
41547;DHT22;27271;45.412;10.852;2023-08-07T07:43:52;32.30;99.90
41547;DHT22;27271;45.412;10.852;2023-08-07T07:47:17;33.90;99.90
41547;DHT22;27271;45.412;10.852;2023-08-07T07:50:41;34.50;99.90
41547;DHT22;27271;45.412;10.852;2023-08-07T07:54:03;34.70;99.90
41547;DHT22;27271;45.412;10.852;2023-08-07T07:57:35;34.90;99.90
41547;DHT22;27271;45.412;10.852;2023-08-07T08:00:58;35.20;99.90
41547;DHT22;27271;45.412;10.852;2023-08-07T08:04:20;35.20;99.90
41547;DHT22;27271;45.412;10.852;2023-08-07T08:07:42;35.10;99.90
41547;DHT22;27271;45.412;10.852;2023-08-07T08:11:04;34.70;99.90
41547;DHT22;27271;45.412;10.852;2023-08-07T08:14:26;35.10;99.90
41547;DHT22;27271;45.412;10.852;2023-08-07T08:17:48;33.90;99.90
41547;DHT22;27271;45.412;10.852;2023-08-07T08:21:10;34.50;99.90
41547;DHT22;27271;45.412;10.852;2023-08-07T08:24:35;34.80;99.90
41547;DHT22;27271;45.412;10.852;2023-08-07T08:27:57;35.20;99.90
41547;DHT22;27271;45.412;10.852;2023-08-07T08:31:19;34.90;99.90
41547;DHT22;27271;45.412;10.852;2023-08-07T08:34:43;35.30;99.90
41547;DHT22;27271;45.412;10.852;2023-08-07T08:38:06;36.00;99.90
41547;DHT22;27271;45.412;10.852;2023-08-07T08:41:28;36.90;99.90
41547;DHT22;27271;45.412;10.852;2023-08-07T08:44:52;37.10;99.90
41547;DHT22;27271;45.412;10.852;2023-08-07T08:48:19;37.90;99.90
41547;DHT22;27271;45.412;10.852;2023-08-07T08:51:44;37.20;99.90
41547;DHT22;27271;45.412;10.852;2023-08-07T08:55:07;37.20;99.90
41547;DHT22;27271;45.412;10.852;2023-08-07T08:58:30;37.60;99.90
41547;DHT22;27271;45.412;10.852;2023-08-07T09:01:52;38.30;99.90
41547;DHT22;27271;45.412;10.852;2023-08-07T09:05:16;37.70;99.90
41547;DHT22;27271;45.412;10.852;2023-08-07T09:08:41;37.70;99.90
41547;DHT22;27271;45.412;10.852;2023-08-07T09:12:04;37.40;99.90
41547;DHT22;27271;45.412;10.852;2023-08-07T09:15:29;37.20;99.90
41547;DHT22;27271;45.412;10.852;2023-08-07T09:18:52;37.70;99.90
41547;DHT22;27271;45.412;10.852;2023-08-07T09:22:16;37.90;99.90
41547;DHT22;27271;45.412;10.852;2023-08-07T09:25:38;37.60;99.90
41547;DHT22;27271;45.412;10.852;2023-08-07T09:29:01;37.80;99.90
41547;DHT22;27271;45.412;10.852;2023-08-07T09:32:24;38.00;99.90
41547;DHT22;27271;45.412;10.852;2023-08-07T09:35:46;38.10;99.90
41547;DHT22;27271;45.412;10.852;2023-08-07T09:39:08;38.30;99.90
41547;DHT22;27271;45.412;10.852;2023-08-07T09:42:32;38.40;99.90
41547;DHT22;27271;45.412;10.852;2023-08-07T09:46:05;38.40;99.90
41547;DHT22;27271;45.412;10.852;2023-08-07T09:49:32;37.80;99.90
41547;DHT22;27271;45.412;10.852;2023-08-07T09:52:55;37.20;99.90
41547;DHT22;27271;45.412;10.852;2023-08-07T09:56:17;37.50;99.90
41547;DHT22;27271;45.412;10.852;2023-08-07T09:59:40;37.20;99.90
41547;DHT22;27271;45.412;10.852;2023-08-07T10:03:03;36.20;99.90
41547;DHT22;27271;45.412;10.852;2023-08-07T10:06:27;35.90;99.90
41547;DHT22;27271;45.412;10.852;2023-08-07T10:09:49;35.90;99.90
41547;DHT22;27271;45.412;10.852;2023-08-07T10:13:13;35.70;99.90
41547;DHT22;27271;45.412;10.852;2023-08-07T10:16:39;36.00;99.90
41547;DHT22;27271;45.412;10.852;2023-08-07T10:20:03;36.20;99.90
41547;DHT22;27271;45.412;10.852;2023-08-07T10:23:27;35.70;99.90
41547;DHT22;27271;45.412;10.852;2023-08-07T10:26:49;36.00;99.90
41547;DHT22;27271;45.412;10.852;2023-08-07T10:30:14;35.70;99.90
41547;DHT22;27271;45.412;10.852;2023-08-07T10:33:39;35.10;99.90
41547;DHT22;27271;45.412;10.852;2023-08-07T10:37:01;34.70;99.90
41547;DHT22;27271;45.412;10.852;2023-08-07T10:40:23;34.70;99.90
41547;DHT22;27271;45.412;10.852;2023-08-07T10:43:46;35.10;99.90
41547;DHT22;27271;45.412;10.852;2023-08-07T10:47:09;35.30;99.90
41547;DHT22;27271;45.412;10.852;2023-08-07T10:50:32;35.50;99.90
41547;DHT22;27271;45.412;10.852;2023-08-07T10:53:54;35.40;99.90
41547;DHT22;27271;45.412;10.852;2023-08-07T10:57:18;35.30;99.90
41547;DHT22;27271;45.412;10.852;2023-08-07T11:00:40;35.50;99.90
41547;DHT22;27271;45.412;10.852;2023-08-07T11:04:08;35.80;99.90
41547;DHT22;27271;45.412;10.852;2023-08-07T11:07:31;35.40;99.90
41547;DHT22;27271;45.412;10.852;2023-08-07T11:10:53;34.90;99.90
41547;DHT22;27271;45.412;10.852;2023-08-07T11:14:18;34.80;99.90
41547;DHT22;27271;45.412;10.852;2023-08-07T11:17:40;33.80;99.90
41547;DHT22;27271;45.412;10.852;2023-08-07T11:21:03;33.90;99.90
41547;DHT22;27271;45.412;10.852;2023-08-07T11:24:27;33.60;99.90
41547;DHT22;27271;45.412;10.852;2023-08-07T11:27:49;33.70;99.90
41547;DHT22;27271;45.412;10.852;2023-08-07T11:31:11;33.70;99.90
41547;DHT22;27271;45.412;10.852;2023-08-07T11:34:33;33.70;99.90
41547;DHT22;27271;45.412;10.852;2023-08-07T11:37:55;33.30;99.90
41547;DHT22;27271;45.412;10.852;2023-08-07T11:41:18;32.90;99.90
41547;DHT22;27271;45.412;10.852;2023-08-07T11:44:41;32.60;99.90
41547;DHT22;27271;45.412;10.852;2023-08-07T11:48:04;31.80;99.90
41547;DHT22;27271;45.412;10.852;2023-08-07T11:51:27;31.70;99.90
41547;DHT22;27271;45.412;10.852;2023-08-07T11:54:52;31.40;99.90
41547;DHT22;27271;45.412;10.852;2023-08-07T11:58:14;30.40;99.90
41547;DHT22;27271;45.412;10.852;2023-08-07T12:01:38;30.00;99.90
41547;DHT22;27271;45.412;10.852;2023-08-07T12:05:02;30.10;99.90
41547;DHT22;27271;45.412;10.852;2023-08-07T12:08:37;30.60;99.90
41547;DHT22;27271;45.412;10.852;2023-08-07T12:12:00;30.20;99.90
41547;DHT22;27271;45.412;10.852;2023-08-07T12:15:24;30.20;99.90
41547;DHT22;27271;45.412;10.852;2023-08-07T12:18:50;30.50;99.90
41547;DHT22;27271;45.412;10.852;2023-08-07T12:22:13;30.50;99.90
41547;DHT22;27271;45.412;10.852;2023-08-07T12:25:35;30.90;99.90
41547;DHT22;27271;45.412;10.852;2023-08-07T12:28:57;30.90;99.90
41547;DHT22;27271;45.412;10.852;2023-08-07T12:32:19;30.70;99.90
41547;DHT22;27271;45.412;10.852;2023-08-07T12:35:41;30.30;99.90
41547;DHT22;27271;45.412;10.852;2023-08-07T12:39:03;30.30;99.90
41547;DHT22;27271;45.412;10.852;2023-08-07T12:42:25;30.40;99.90
41547;DHT22;27271;45.412;10.852;2023-08-07T12:45:48;30.90;99.90
41547;DHT22;27271;45.412;10.852;2023-08-07T12:49:15;31.20;99.90
41547;DHT22;27271;45.412;10.852;2023-08-07T12:52:37;31.10;99.90
41547;DHT22;27271;45.412;10.852;2023-08-07T12:55:59;31.00;99.90
41547;DHT22;27271;45.412;10.852;2023-08-07T12:59:21;31.00;99.90
41547;DHT22;27271;45.412;10.852;2023-08-07T13:02:48;30.60;99.90
41547;DHT22;27271;45.412;10.852;2023-08-07T13:06:10;30.90;99.90
41547;DHT22;27271;45.412;10.852;2023-08-07T13:09:33;31.10;99.90
41547;DHT22;27271;45.412;10.852;2023-08-07T13:12:56;31.20;99.90
41547;DHT22;27271;45.412;10.852;2023-08-07T13:16:18;31.40;99.90
41547;DHT22;27271;45.412;10.852;2023-08-07T13:19:40;31.60;99.90
41547;DHT22;27271;45.412;10.852;2023-08-07T13:23:02;31.70;99.90
41547;DHT22;27271;45.412;10.852;2023-08-07T13:26:26;31.60;99.90
41547;DHT22;27271;45.412;10.852;2023-08-07T13:29:48;31.70;99.90
41547;DHT22;27271;45.412;10.852;2023-08-07T13:33:10;31.70;99.90
41547;DHT22;27271;45.412;10.852;2023-08-07T13:36:33;31.60;99.90
41547;DHT22;27271;45.412;10.852;2023-08-07T13:39:55;31.50;99.90
41547;DHT22;27271;45.412;10.852;2023-08-07T13:43:17;31.50;99.90
41547;DHT22;27271;45.412;10.852;2023-08-07T13:46:39;31.50;99.90
41547;DHT22;27271;45.412;10.852;2023-08-07T13:50:01;31.40;99.90
41547;DHT22;27271;45.412;10.852;2023-08-07T13:53:24;30.90;99.90
41547;DHT22;27271;45.412;10.852;2023-08-07T13:56:51;30.90;99.90
41547;DHT22;27271;45.412;10.852;2023-08-07T14:00:13;30.80;99.90
41547;DHT22;27271;45.412;10.852;2023-08-07T14:03:35;31.00;99.90
41547;DHT22;27271;45.412;10.852;2023-08-07T14:06:58;31.00;99.90
41547;DHT22;27271;45.412;10.852;2023-08-07T14:10:21;30.80;99.90
41547;DHT22;27271;45.412;10.852;2023-08-07T14:13:43;30.70;99.90
41547;DHT22;27271;45.412;10.852;2023-08-07T14:17:06;30.60;99.90
41547;DHT22;27271;45.412;10.852;2023-08-07T14:20:28;30.10;99.90
41547;DHT22;27271;45.412;10.852;2023-08-07T14:23:50;29.70;99.90
41547;DHT22;27271;45.412;10.852;2023-08-07T14:27:12;29.80;99.90
41547;DHT22;27271;45.412;10.852;2023-08-07T14:30:34;29.60;99.90
41547;DHT22;27271;45.412;10.852;2023-08-07T14:33:57;29.80;99.90
41547;DHT22;27271;45.412;10.852;2023-08-07T14:37:19;29.90;99.90
41547;DHT22;27271;45.412;10.852;2023-08-07T14:40:41;29.70;99.90
41547;DHT22;27271;45.412;10.852;2023-08-07T14:44:04;29.70;99.90
41547;DHT22;27271;45.412;10.852;2023-08-07T14:47:27;29.90;99.90
41547;DHT22;27271;45.412;10.852;2023-08-07T14:50:48;29.90;99.90
41547;DHT22;27271;45.412;10.852;2023-08-07T14:54:11;29.70;99.90
41547;DHT22;27271;45.412;10.852;2023-08-07T14:57:33;29.70;99.90
41547;DHT22;27271;45.412;10.852;2023-08-07T15:00:55;29.90;99.90
41547;DHT22;27271;45.412;10.852;2023-08-07T15:04:17;30.10;99.90
41547;DHT22;27271;45.412;10.852;2023-08-07T15:07:39;30.20;99.90
41547;DHT22;27271;45.412;10.852;2023-08-07T15:11:01;29.50;99.90
41547;DHT22;27271;45.412;10.852;2023-08-07T15:14:23;29.60;99.90
41547;DHT22;27271;45.412;10.852;2023-08-07T15:17:45;29.50;99.90
41547;DHT22;27271;45.412;10.852;2023-08-07T15:21:08;29.60;99.90
41547;DHT22;27271;45.412;10.852;2023-08-07T15:24:30;29.90;99.90
41547;DHT22;27271;45.412;10.852;2023-08-07T15:27:52;29.80;99.90
41547;DHT22;27271;45.412;10.852;2023-08-07T15:31:14;29.70;99.90
41547;DHT22;27271;45.412;10.852;2023-08-07T15:34:36;29.80;99.90
41547;DHT22;27271;45.412;10.852;2023-08-07T15:37:58;30.00;99.90
41547;DHT22;27271;45.412;10.852;2023-08-07T15:41:22;30.20;99.90
41547;DHT22;27271;45.412;10.852;2023-08-07T15:44:44;30.40;99.90
41547;DHT22;27271;45.412;10.852;2023-08-07T15:48:06;30.10;99.90
41547;DHT22;27271;45.412;10.852;2023-08-07T15:51:28;30.20;99.90
41547;DHT22;27271;45.412;10.852;2023-08-07T15:54:51;30.20;99.90
41547;DHT22;27271;45.412;10.852;2023-08-07T15:58:13;30.10;99.90
41547;DHT22;27271;45.412;10.852;2023-08-07T16:01:35;30.00;99.90
41547;DHT22;27271;45.412;10.852;2023-08-07T16:04:57;29.90;99.90
41547;DHT22;27271;45.412;10.852;2023-08-07T16:08:19;29.80;99.90
41547;DHT22;27271;45.412;10.852;2023-08-07T16:11:41;29.80;99.90
41547;DHT22;27271;45.412;10.852;2023-08-07T16:15:03;29.90;99.90
41547;DHT22;27271;45.412;10.852;2023-08-07T16:18:25;29.80;99.90
41547;DHT22;27271;45.412;10.852;2023-08-07T16:21:47;29.80;99.90
41547;DHT22;27271;45.412;10.852;2023-08-07T16:25:10;29.80;99.90
41547;DHT22;27271;45.412;10.852;2023-08-07T16:28:32;29.70;99.90
41547;DHT22;27271;45.412;10.852;2023-08-07T16:31:54;29.80;99.90
41547;DHT22;27271;45.412;10.852;2023-08-07T16:35:18;30.00;99.90
41547;DHT22;27271;45.412;10.852;2023-08-07T16:38:40;30.00;99.90
41547;DHT22;27271;45.412;10.852;2023-08-07T16:42:03;29.90;99.90
41547;DHT22;27271;45.412;10.852;2023-08-07T16:45:25;30.00;99.90
41547;DHT22;27271;45.412;10.852;2023-08-07T16:48:47;29.60;99.90
41547;DHT22;27271;45.412;10.852;2023-08-07T16:52:10;29.60;99.90
41547;DHT22;27271;45.412;10.852;2023-08-07T16:55:32;29.50;99.90
41547;DHT22;27271;45.412;10.852;2023-08-07T16:58:54;29.50;99.90
41547;DHT22;27271;45.412;10.852;2023-08-07T17:02:16;29.40;99.90
41547;DHT22;27271;45.412;10.852;2023-08-07T17:05:38;29.00;99.90
41547;DHT22;27271;45.412;10.852;2023-08-07T17:09:01;28.90;99.90
41547;DHT22;27271;45.412;10.852;2023-08-07T17:12:23;28.90;99.90
41547;DHT22;27271;45.412;10.852;2023-08-07T17:15:45;28.80;99.90
41547;DHT22;27271;45.412;10.852;2023-08-07T17:19:08;28.80;99.90
41547;DHT22;27271;45.412;10.852;2023-08-07T17:22:30;28.70;99.90
41547;DHT22;27271;45.412;10.852;2023-08-07T17:25:52;28.60;99.90
41547;DHT22;27271;45.412;10.852;2023-08-07T17:29:14;28.30;99.90
41547;DHT22;27271;45.412;10.852;2023-08-07T17:32:36;28.10;99.90
41547;DHT22;27271;45.412;10.852;2023-08-07T17:35:59;27.80;99.90
41547;DHT22;27271;45.412;10.852;2023-08-07T17:39:21;27.30;99.90
41547;DHT22;27271;45.412;10.852;2023-08-07T17:42:44;26.80;99.90
41547;DHT22;27271;45.412;10.852;2023-08-07T17:46:06;26.40;99.90
41547;DHT22;27271;45.412;10.852;2023-08-07T17:49:28;25.90;99.90
41547;DHT22;27271;45.412;10.852;2023-08-07T17:52:50;25.50;99.90
41547;DHT22;27271;45.412;10.852;2023-08-07T17:56:12;25.20;99.90
41547;DHT22;27271;45.412;10.852;2023-08-07T17:59:34;25.10;99.90
41547;DHT22;27271;45.412;10.852;2023-08-07T18:02:56;24.90;99.90
41547;DHT22;27271;45.412;10.852;2023-08-07T18:06:18;24.70;99.90
41547;DHT22;27271;45.412;10.852;2023-08-07T18:09:40;24.50;99.90
41547;DHT22;27271;45.412;10.852;2023-08-07T18:13:04;24.30;99.90
41547;DHT22;27271;45.412;10.852;2023-08-07T18:16:26;24.10;99.90
41547;DHT22;27271;45.412;10.852;2023-08-07T18:19:48;23.90;99.90
41547;DHT22;27271;45.412;10.852;2023-08-07T18:23:10;23.80;99.90
41547;DHT22;27271;45.412;10.852;2023-08-07T18:26:32;23.70;99.90
41547;DHT22;27271;45.412;10.852;2023-08-07T18:29:54;23.50;99.90
41547;DHT22;27271;45.412;10.852;2023-08-07T18:33:16;23.40;99.90
41547;DHT22;27271;45.412;10.852;2023-08-07T18:36:38;23.20;99.90
41547;DHT22;27271;45.412;10.852;2023-08-07T18:40:02;23.10;99.90
41547;DHT22;27271;45.412;10.852;2023-08-07T18:43:25;22.90;99.90
41547;DHT22;27271;45.412;10.852;2023-08-07T18:46:50;22.80;99.90
41547;DHT22;27271;45.412;10.852;2023-08-07T18:50:12;22.60;99.90
41547;DHT22;27271;45.412;10.852;2023-08-07T18:53:34;22.40;99.90
41547;DHT22;27271;45.412;10.852;2023-08-07T18:56:56;22.10;99.90
41547;DHT22;27271;45.412;10.852;2023-08-07T19:00:19;21.90;99.90
41547;DHT22;27271;45.412;10.852;2023-08-07T19:03:41;21.90;99.90
41547;DHT22;27271;45.412;10.852;2023-08-07T19:07:03;21.80;99.90
41547;DHT22;27271;45.412;10.852;2023-08-07T19:10:26;21.70;99.90
41547;DHT22;27271;45.412;10.852;2023-08-07T19:13:48;21.60;99.90
41547;DHT22;27271;45.412;10.852;2023-08-07T19:17:10;21.60;99.90
41547;DHT22;27271;45.412;10.852;2023-08-07T19:20:32;21.40;99.90
41547;DHT22;27271;45.412;10.852;2023-08-07T19:23:54;21.30;99.90
41547;DHT22;27271;45.412;10.852;2023-08-07T19:27:16;21.30;99.90
41547;DHT22;27271;45.412;10.852;2023-08-07T19:30:38;21.30;99.90
41547;DHT22;27271;45.412;10.852;2023-08-07T19:34:05;21.20;99.90
41547;DHT22;27271;45.412;10.852;2023-08-07T19:37:29;21.20;99.90
41547;DHT22;27271;45.412;10.852;2023-08-07T19:40:52;21.10;99.90
41547;DHT22;27271;45.412;10.852;2023-08-07T19:44:14;21.00;99.90
41547;DHT22;27271;45.412;10.852;2023-08-07T19:47:36;20.90;99.90
41547;DHT22;27271;45.412;10.852;2023-08-07T19:50:58;20.80;99.90
41547;DHT22;27271;45.412;10.852;2023-08-07T19:54:20;20.60;99.90
41547;DHT22;27271;45.412;10.852;2023-08-07T19:57:42;20.50;99.90
41547;DHT22;27271;45.412;10.852;2023-08-07T20:01:05;20.40;99.90
41547;DHT22;27271;45.412;10.852;2023-08-07T20:04:27;20.30;99.90
41547;DHT22;27271;45.412;10.852;2023-08-07T20:07:49;20.20;99.90
41547;DHT22;27271;45.412;10.852;2023-08-07T20:11:11;20.10;99.90
41547;DHT22;27271;45.412;10.852;2023-08-07T20:14:34;20.10;99.90
41547;DHT22;27271;45.412;10.852;2023-08-07T20:17:57;20.10;99.90
41547;DHT22;27271;45.412;10.852;2023-08-07T20:21:20;20.00;99.90
41547;DHT22;27271;45.412;10.852;2023-08-07T20:24:42;20.00;99.90
41547;DHT22;27271;45.412;10.852;2023-08-07T20:28:04;19.90;99.90
41547;DHT22;27271;45.412;10.852;2023-08-07T20:31:26;19.70;99.90
41547;DHT22;27271;45.412;10.852;2023-08-07T20:34:48;19.50;99.90
41547;DHT22;27271;45.412;10.852;2023-08-07T20:38:10;19.40;99.90
41547;DHT22;27271;45.412;10.852;2023-08-07T20:41:32;19.30;99.90
41547;DHT22;27271;45.412;10.852;2023-08-07T20:44:55;19.30;99.90
41547;DHT22;27271;45.412;10.852;2023-08-07T20:48:17;19.30;99.90
41547;DHT22;27271;45.412;10.852;2023-08-07T20:51:39;19.30;99.90
41547;DHT22;27271;45.412;10.852;2023-08-07T20:55:01;19.30;99.90
41547;DHT22;27271;45.412;10.852;2023-08-07T20:58:24;19.30;99.90
41547;DHT22;27271;45.412;10.852;2023-08-07T21:01:46;19.20;99.90
41547;DHT22;27271;45.412;10.852;2023-08-07T21:05:08;19.20;99.90
41547;DHT22;27271;45.412;10.852;2023-08-07T21:08:30;19.20;99.90
41547;DHT22;27271;45.412;10.852;2023-08-07T21:11:52;19.10;99.90
41547;DHT22;27271;45.412;10.852;2023-08-07T21:15:15;19.00;99.90
41547;DHT22;27271;45.412;10.852;2023-08-07T21:18:37;19.00;99.90
41547;DHT22;27271;45.412;10.852;2023-08-07T21:21:59;18.90;99.90
41547;DHT22;27271;45.412;10.852;2023-08-07T21:25:21;18.80;99.90
41547;DHT22;27271;45.412;10.852;2023-08-07T21:28:43;18.80;99.90
41547;DHT22;27271;45.412;10.852;2023-08-07T21:32:06;18.80;99.90
41547;DHT22;27271;45.412;10.852;2023-08-07T21:35:29;18.70;99.90
41547;DHT22;27271;45.412;10.852;2023-08-07T21:38:51;18.70;99.90
41547;DHT22;27271;45.412;10.852;2023-08-07T21:42:14;18.60;99.90
41547;DHT22;27271;45.412;10.852;2023-08-07T21:45:37;18.60;99.90
41547;DHT22;27271;45.412;10.852;2023-08-07T21:49:00;18.50;99.90
41547;DHT22;27271;45.412;10.852;2023-08-07T21:52:22;18.50;99.90
41547;DHT22;27271;45.412;10.852;2023-08-07T21:55:44;18.40;99.90
41547;DHT22;27271;45.412;10.852;2023-08-07T21:59:06;18.40;99.90
41547;DHT22;27271;45.412;10.852;2023-08-07T22:02:28;18.30;99.90
41547;DHT22;27271;45.412;10.852;2023-08-07T22:05:50;18.20;99.90
41547;DHT22;27271;45.412;10.852;2023-08-07T22:09:13;18.10;99.90
41547;DHT22;27271;45.412;10.852;2023-08-07T22:12:35;18.10;99.90
41547;DHT22;27271;45.412;10.852;2023-08-07T22:15:58;18.20;99.90
41547;DHT22;27271;45.412;10.852;2023-08-07T22:19:20;18.20;99.90
41547;DHT22;27271;45.412;10.852;2023-08-07T22:22:42;18.20;99.90
41547;DHT22;27271;45.412;10.852;2023-08-07T22:26:05;18.10;99.90
41547;DHT22;27271;45.412;10.852;2023-08-07T22:29:27;18.10;99.90
